createdAt,value
2023-05-14T00:00:38.727Z,10.83
2023-05-14T00:03:41.240Z,10.80
2023-05-14T00:06:42.935Z,10.82
2023-05-14T00:09:44.529Z,10.83
2023-05-14T00:12:46.139Z,10.88
2023-05-14T00:15:47.738Z,10.91
2023-05-14T00:18:49.346Z,10.96
2023-05-14T00:21:50.992Z,11.02
2023-05-14T00:24:52.608Z,10.95
2023-05-14T00:27:54.569Z,11.07
2023-05-14T00:30:57.149Z,11.03
2023-05-14T00:33:58.759Z,11.08
2023-05-14T00:37:00.364Z,11.14
2023-05-14T00:40:02.035Z,11.15
2023-05-14T00:43:03.783Z,11.17
2023-05-14T00:46:06.055Z,11.15
2023-05-14T00:49:07.820Z,11.13
2023-05-14T00:52:11.016Z,11.14
2023-05-14T00:55:16.574Z,11.08
2023-05-14T00:58:19.325Z,11.21
2023-05-14T01:01:21.175Z,11.24
2023-05-14T01:04:22.868Z,11.22
2023-05-14T01:07:34.070Z,11.29
2023-05-14T01:10:42.274Z,11.23
2023-05-14T01:14:14.675Z,11.28
2023-05-14T01:17:20.097Z,11.12
2023-05-14T01:20:22.321Z,11.19
2023-05-14T01:23:24.109Z,11.14
2023-05-14T01:26:25.974Z,11.11
2023-05-14T01:29:29.134Z,11.10
2023-05-14T01:32:32.298Z,11.04
2023-05-14T01:35:33.982Z,10.94
2023-05-14T01:38:36.460Z,10.94
2023-05-14T01:41:39.496Z,11.03
2023-05-14T01:44:41.754Z,10.97
2023-05-14T01:47:43.370Z,11.01
2023-05-14T01:50:44.981Z,10.99
2023-05-14T01:53:46.573Z,10.89
2023-05-14T01:56:48.229Z,10.89
2023-05-14T01:59:49.781Z,10.82
2023-05-14T02:02:51.562Z,10.72
2023-05-14T02:05:53.125Z,10.81
2023-05-14T02:08:54.658Z,10.81
2023-05-14T02:11:56.240Z,10.68
2023-05-14T02:14:57.807Z,10.70
2023-05-14T02:17:59.444Z,10.78
2023-05-14T02:21:01.058Z,10.76
2023-05-14T02:24:02.718Z,10.62
2023-05-14T02:27:04.989Z,10.76
2023-05-14T02:30:07.130Z,10.80
2023-05-14T02:33:08.935Z,10.77
2023-05-14T02:36:10.631Z,10.73
2023-05-14T02:39:12.172Z,10.72
2023-05-14T02:42:13.725Z,10.70
2023-05-14T02:45:15.365Z,10.79
2023-05-14T02:48:16.949Z,10.68
2023-05-14T02:51:20.119Z,10.71
2023-05-14T02:54:21.710Z,10.73
2023-05-14T02:57:23.329Z,10.70
2023-05-14T03:00:25.261Z,10.69
2023-05-14T03:03:27.388Z,10.66
2023-05-14T03:06:29.534Z,10.64
2023-05-14T03:09:31.120Z,10.65
2023-05-14T03:12:32.722Z,10.61
2023-05-14T03:15:34.409Z,10.71
2023-05-14T03:18:36.793Z,10.70
2023-05-14T03:21:38.459Z,10.69
2023-05-14T03:24:40.869Z,10.73
2023-05-14T03:27:42.432Z,10.71
2023-05-14T03:30:44.162Z,10.66
2023-05-14T03:33:45.906Z,10.74
2023-05-14T03:36:47.524Z,10.65
2023-05-14T03:39:49.114Z,10.55
2023-05-14T03:42:50.908Z,10.55
2023-05-14T03:45:52.800Z,10.64
2023-05-14T03:48:54.540Z,10.58
2023-05-14T03:51:57.382Z,10.57
2023-05-14T03:54:58.915Z,10.43
2023-05-14T03:58:00.609Z,10.49
2023-05-14T04:01:02.145Z,10.47
2023-05-14T04:04:03.897Z,10.40
2023-05-14T04:07:05.597Z,10.37
2023-05-14T04:10:07.714Z,10.45
2023-05-14T04:13:09.447Z,10.51
2023-05-14T04:16:13.325Z,10.40
2023-05-14T04:19:15.015Z,10.47
2023-05-14T04:22:16.718Z,10.50
2023-05-14T04:25:18.591Z,10.49
2023-05-14T04:28:20.159Z,10.52
2023-05-14T04:31:22.097Z,10.53
2023-05-14T04:34:23.695Z,10.48
2023-05-14T04:37:26.098Z,10.59
2023-05-14T04:40:27.758Z,10.51
2023-05-14T04:43:29.310Z,10.57
2023-05-14T04:46:31.139Z,10.59
2023-05-14T04:49:33.447Z,10.53
2023-05-14T04:52:35.506Z,10.53
2023-05-14T04:55:37.365Z,10.59
2023-05-14T04:58:38.962Z,10.54
2023-05-14T05:01:40.634Z,10.46
2023-05-14T05:04:42.251Z,10.53
2023-05-14T05:07:43.829Z,10.65
2023-05-14T05:10:45.399Z,10.61
2023-05-14T05:13:46.974Z,10.49
2023-05-14T05:16:48.603Z,10.52
2023-05-14T05:19:50.380Z,10.57
2023-05-14T05:22:51.958Z,10.51
2023-05-14T05:25:53.579Z,10.37
2023-05-14T05:28:55.223Z,10.50
2023-05-14T05:31:56.830Z,10.58
2023-05-14T05:34:58.503Z,10.62
2023-05-14T05:38:01.605Z,10.61
2023-05-14T05:41:03.467Z,10.60
2023-05-14T05:44:05.184Z,10.68
2023-05-14T05:47:06.833Z,10.66
2023-05-14T05:50:09.797Z,10.65
2023-05-14T05:53:11.474Z,10.65
2023-05-14T05:56:13.049Z,10.77
2023-05-14T05:59:14.742Z,10.74
2023-05-14T06:02:16.336Z,10.68
2023-05-14T06:05:18.898Z,10.71
2023-05-14T06:08:20.541Z,10.82
2023-05-14T06:11:22.342Z,10.88
2023-05-14T06:14:23.927Z,10.72
2023-05-14T06:17:25.713Z,10.75
2023-05-14T06:20:27.343Z,10.80
2023-05-14T06:23:29.775Z,10.80
2023-05-14T06:26:31.334Z,10.87
2023-05-14T06:29:32.920Z,10.82
2023-05-14T06:32:34.544Z,10.81
2023-05-14T06:35:37.107Z,10.90
2023-05-14T06:38:38.695Z,10.90
2023-05-14T06:41:40.323Z,11.01
2023-05-14T06:44:42.472Z,11.06
2023-05-14T06:47:44.170Z,11.07
2023-05-14T06:50:49.167Z,11.27
2023-05-14T06:53:52.337Z,11.39
2023-05-14T06:56:54.293Z,11.42
2023-05-14T06:59:55.838Z,11.46
2023-05-14T07:02:57.431Z,11.35
2023-05-14T07:05:58.981Z,11.51
2023-05-14T07:09:01.671Z,11.44
2023-05-14T07:12:03.364Z,11.64
2023-05-14T07:15:05.660Z,11.68
2023-05-14T07:18:07.286Z,11.81
2023-05-14T07:21:09.115Z,11.63
2023-05-14T07:24:10.705Z,11.88
2023-05-14T07:27:12.561Z,12.06
2023-05-14T07:30:14.721Z,12.23
2023-05-14T07:33:16.427Z,12.35
2023-05-14T07:36:18.025Z,12.41
2023-05-14T07:39:19.723Z,12.42
2023-05-14T07:42:34.578Z,12.53
2023-05-14T07:45:39.038Z,12.52
2023-05-14T07:48:40.665Z,12.65
2023-05-14T07:51:42.367Z,12.75
2023-05-14T07:54:43.931Z,12.72
2023-05-14T07:57:46.106Z,12.92
2023-05-14T08:00:47.679Z,13.14
2023-05-14T08:03:49.604Z,13.20
2023-05-14T08:06:51.731Z,13.59
2023-05-14T08:09:53.298Z,13.77
2023-05-14T08:12:54.933Z,13.90
2023-05-14T08:15:56.605Z,13.72
2023-05-14T08:18:58.188Z,13.84
2023-05-14T08:21:59.791Z,13.97
2023-05-14T08:25:03.483Z,14.03
2023-05-14T08:28:05.464Z,13.98
2023-05-14T08:31:07.082Z,13.67
2023-05-14T08:34:08.658Z,13.65
2023-05-14T08:37:10.254Z,13.44
2023-05-14T08:40:12.545Z,13.24
2023-05-14T08:43:19.745Z,13.22
2023-05-14T08:46:24.130Z,13.12
2023-05-14T08:49:37.456Z,12.80
2023-05-14T08:52:39.733Z,12.77
2023-05-14T08:55:42.538Z,12.51
2023-05-14T08:58:44.120Z,12.55
2023-05-14T09:01:51.741Z,12.47
2023-05-14T09:04:57.131Z,12.54
2023-05-14T09:07:59.394Z,12.41
2023-05-14T09:11:00.945Z,12.38
2023-05-14T09:14:02.584Z,12.36
2023-05-14T09:17:04.303Z,12.34
2023-05-14T09:20:07.154Z,12.45
2023-05-14T09:23:08.780Z,12.37
2023-05-14T09:26:10.867Z,12.31
2023-05-14T09:29:12.434Z,12.42
2023-05-14T09:32:14.083Z,12.39
2023-05-14T09:35:20.221Z,12.49
2023-05-14T09:38:24.178Z,12.44
2023-05-14T09:41:25.875Z,12.60
2023-05-14T09:44:27.805Z,12.61
2023-05-14T09:47:29.368Z,12.55
2023-05-14T09:50:31.210Z,12.51
2023-05-14T09:53:34.291Z,12.58
2023-05-14T09:56:37.098Z,12.73
2023-05-14T09:59:38.679Z,12.78
2023-05-14T10:02:42.809Z,12.90
2023-05-14T10:05:45.126Z,12.75
2023-05-14T10:08:49.119Z,12.75
2023-05-14T10:11:54.263Z,12.87
2023-05-14T10:15:01.338Z,12.76
2023-05-14T10:18:08.091Z,12.85
2023-05-14T10:21:11.381Z,12.88
2023-05-14T10:24:13.293Z,12.83
2023-05-14T10:27:15.285Z,12.79
2023-05-14T10:30:16.860Z,12.90
2023-05-14T10:33:18.901Z,12.79
2023-05-14T10:36:20.833Z,12.88
2023-05-14T10:39:22.431Z,12.77
2023-05-14T10:42:28.982Z,12.78
2023-05-14T10:45:30.805Z,12.92
2023-05-14T10:48:33.313Z,12.76
2023-05-14T10:51:36.677Z,12.86
2023-05-14T10:54:38.876Z,12.93
2023-05-14T10:57:42.814Z,13.04
2023-05-14T11:00:48.219Z,12.94
2023-05-14T11:03:53.334Z,12.97
2023-05-14T11:06:56.655Z,12.94
2023-05-14T11:10:02.953Z,13.06
2023-05-14T11:13:04.666Z,12.97
2023-05-14T11:19:11.449Z,12.79
2023-05-14T11:22:14.516Z,12.82
2023-05-14T11:25:17.008Z,12.73
2023-05-14T11:28:26.609Z,12.70
2023-05-14T11:31:28.211Z,12.72
2023-05-14T11:34:29.850Z,12.81
2023-05-14T11:37:31.466Z,12.67
2023-05-14T11:40:33.030Z,12.71
2023-05-14T11:43:36.543Z,12.79
2023-05-14T11:46:38.153Z,12.84
2023-05-14T11:49:39.854Z,12.71
2023-05-14T11:52:41.773Z,12.65
2023-05-14T11:55:43.545Z,12.78
2023-05-14T11:58:48.998Z,12.85
2023-05-14T12:01:52.343Z,12.78
2023-05-14T12:04:54.145Z,12.79
2023-05-14T12:07:56.262Z,12.66
2023-05-14T12:11:01.558Z,12.63
2023-05-14T12:14:12.257Z,12.65
2023-05-14T12:17:23.239Z,12.53
2023-05-14T12:20:26.340Z,12.56
2023-05-14T12:23:29.682Z,12.53
2023-05-14T12:26:34.319Z,12.60
2023-05-14T12:29:37.994Z,12.73
2023-05-14T12:32:41.249Z,12.71
2023-05-14T12:35:43.118Z,12.72
2023-05-14T12:38:44.729Z,12.76
2023-05-14T12:41:46.510Z,12.78
2023-05-14T12:44:48.226Z,12.78
2023-05-14T12:47:49.863Z,12.78
2023-05-14T12:50:51.849Z,12.79
2023-05-14T12:53:54.292Z,12.84
2023-05-14T12:56:55.967Z,12.69
2023-05-14T12:59:57.636Z,12.72
2023-05-14T13:02:59.269Z,12.62
2023-05-14T13:06:01.415Z,12.54
2023-05-14T13:09:03.371Z,12.46
2023-05-14T13:12:05.387Z,12.40
2023-05-14T13:15:07.541Z,12.15
2023-05-14T13:18:09.191Z,12.25
2023-05-14T13:21:10.899Z,12.05
2023-05-14T13:24:12.479Z,12.10
2023-05-14T13:27:14.086Z,12.05
2023-05-14T13:30:16.205Z,12.02
2023-05-14T13:33:17.737Z,12.07
2023-05-14T13:36:19.413Z,12.08
2023-05-14T13:39:22.756Z,12.04
2023-05-14T13:42:24.382Z,11.84
2023-05-14T13:45:26.142Z,11.75
2023-05-14T13:48:28.154Z,11.70
2023-05-14T13:51:29.765Z,11.76
2023-05-14T13:54:31.342Z,11.67
2023-05-14T13:57:32.924Z,11.61
2023-05-14T14:00:34.476Z,11.69
2023-05-14T14:03:36.051Z,11.76
2023-05-14T14:06:37.622Z,11.73
2023-05-14T14:09:39.168Z,11.73
2023-05-14T14:12:40.963Z,11.84
2023-05-14T14:15:43.549Z,11.87
2023-05-14T14:18:45.282Z,11.87
2023-05-14T14:21:46.956Z,11.92
2023-05-14T14:24:48.533Z,11.99
2023-05-14T14:27:51.000Z,11.93
2023-05-14T14:30:52.711Z,11.94
2023-05-14T14:33:54.259Z,11.97
2023-05-14T14:36:55.834Z,11.96
2023-05-14T14:39:57.439Z,11.94
2023-05-14T14:42:59.010Z,12.00
2023-05-14T14:46:00.684Z,11.82
2023-05-14T14:49:02.281Z,11.86
2023-05-14T14:52:04.037Z,11.93
2023-05-14T14:55:06.287Z,11.82
2023-05-14T14:58:08.221Z,11.85
2023-05-14T15:01:09.886Z,11.79
2023-05-14T15:04:11.644Z,11.79
2023-05-14T15:07:13.737Z,11.91
2023-05-14T15:10:15.477Z,11.96
2023-05-14T15:13:17.650Z,11.94
2023-05-14T15:16:19.301Z,11.85
2023-05-14T15:19:20.916Z,11.90
2023-05-14T15:22:22.511Z,11.97
2023-05-14T15:25:24.761Z,12.00
2023-05-14T15:28:26.709Z,11.93
2023-05-14T15:31:28.392Z,11.91
2023-05-14T15:34:30.021Z,11.84
2023-05-14T15:37:49.465Z,11.91
2023-05-14T15:40:51.279Z,12.03
2023-05-14T15:43:52.822Z,12.09
2023-05-14T15:46:54.444Z,12.10
2023-05-14T15:49:56.110Z,12.09
2023-05-14T15:52:57.734Z,11.97
2023-05-14T15:55:59.310Z,11.91
2023-05-14T15:59:00.888Z,11.92
2023-05-14T16:02:02.552Z,11.91
2023-05-14T16:05:04.396Z,11.86
2023-05-14T16:08:06.278Z,11.99
2023-05-14T16:11:07.956Z,11.90
2023-05-14T16:14:09.626Z,11.85
2023-05-14T16:17:11.525Z,11.94
2023-05-14T16:20:13.145Z,11.86
2023-05-14T16:23:14.774Z,11.88
2023-05-14T16:26:16.432Z,11.85
2023-05-14T16:29:18.274Z,11.84
2023-05-14T16:32:20.116Z,11.83
2023-05-14T16:35:23.006Z,11.77
2023-05-14T16:38:24.688Z,11.87
2023-05-14T16:41:26.234Z,11.88
2023-05-14T16:44:27.810Z,11.90
2023-05-14T16:47:29.454Z,11.82
2023-05-14T16:50:31.048Z,11.86
2023-05-14T16:53:32.635Z,11.76
2023-05-14T16:56:34.240Z,11.90
2023-05-14T16:59:36.189Z,11.89
2023-05-14T17:02:38.071Z,11.79
2023-05-14T17:05:39.672Z,11.94
2023-05-14T17:08:41.759Z,11.86
2023-05-14T17:11:43.422Z,11.86
2023-05-14T17:14:45.111Z,11.87
2023-05-14T17:17:47.359Z,11.86
2023-05-14T17:20:48.925Z,11.97
2023-05-14T17:23:51.663Z,11.90
2023-05-14T17:26:53.317Z,11.93
2023-05-14T17:29:55.062Z,11.94
2023-05-14T17:32:56.731Z,11.91
2023-05-14T17:35:58.675Z,11.99
2023-05-14T17:39:00.353Z,11.96
2023-05-14T17:42:03.619Z,11.95
2023-05-14T17:45:06.011Z,11.92
2023-05-14T17:48:07.835Z,12.00
2023-05-14T17:51:09.598Z,11.94
2023-05-14T17:54:11.160Z,11.99
2023-05-14T17:57:12.734Z,11.98
2023-05-14T18:00:14.587Z,11.90
2023-05-14T18:03:16.235Z,12.01
2023-05-14T18:06:17.932Z,11.92
2023-05-14T18:09:19.535Z,12.02
2023-05-14T18:12:21.126Z,12.02
2023-05-14T18:15:25.432Z,11.98
2023-05-14T18:18:27.593Z,12.00
2023-05-14T18:21:29.189Z,11.94
2023-05-14T18:24:30.780Z,11.96
2023-05-14T18:27:32.438Z,11.96
2023-05-14T18:30:34.085Z,12.00
2023-05-14T18:33:35.691Z,11.99
2023-05-14T18:36:37.672Z,11.95
2023-05-14T18:39:39.519Z,12.02
2023-05-14T18:42:41.354Z,12.05
2023-05-14T18:45:43.384Z,12.00
2023-05-14T18:48:44.933Z,12.03
2023-05-14T18:51:46.747Z,11.98
2023-05-14T18:54:48.335Z,11.99
2023-05-14T18:57:50.196Z,11.99
2023-05-14T19:00:52.542Z,11.99
2023-05-14T19:03:54.217Z,12.00
2023-05-14T19:06:56.136Z,11.90
2023-05-14T19:09:57.700Z,11.98
2023-05-14T19:12:59.331Z,11.99
2023-05-14T19:16:01.080Z,11.95
2023-05-14T19:19:03.181Z,11.89
2023-05-14T19:22:05.245Z,11.97
2023-05-14T19:25:08.127Z,11.89
2023-05-14T19:28:10.127Z,11.91
2023-05-14T19:31:11.756Z,11.93
2023-05-14T19:34:13.343Z,12.02
2023-05-14T19:37:14.928Z,12.04
2023-05-14T19:40:16.658Z,12.05
2023-05-14T19:43:18.210Z,12.12
2023-05-14T19:46:19.815Z,12.17
2023-05-14T19:49:21.387Z,12.25
2023-05-14T19:52:22.961Z,12.20
2023-05-14T19:55:24.920Z,12.29
2023-05-14T19:58:26.816Z,12.23
2023-05-14T20:01:28.958Z,12.27
2023-05-14T20:04:30.792Z,12.18
2023-05-14T20:07:33.438Z,12.20
2023-05-14T20:10:35.054Z,12.19
2023-05-14T20:13:36.798Z,12.27
2023-05-14T20:16:38.489Z,12.30
2023-05-14T20:19:40.121Z,12.28
2023-05-14T20:22:42.850Z,12.32
2023-05-14T20:25:44.899Z,12.30
2023-05-14T20:28:46.473Z,12.24
2023-05-14T20:31:48.039Z,12.20
2023-05-14T20:34:49.615Z,12.16
2023-05-14T20:37:51.211Z,12.15
2023-05-14T20:40:52.793Z,12.11
2023-05-14T20:43:54.366Z,12.20
2023-05-14T20:46:55.987Z,12.11
2023-05-14T20:49:57.562Z,12.12
2023-05-14T20:52:59.079Z,12.07
2023-05-14T20:56:01.358Z,12.09
2023-05-14T20:59:02.952Z,12.07
2023-05-14T21:02:04.791Z,12.07
2023-05-14T21:05:06.982Z,12.06
2023-05-14T21:08:08.651Z,12.06
2023-05-14T21:11:10.244Z,12.11
2023-05-14T21:14:11.779Z,12.02
2023-05-14T21:17:13.324Z,12.03
2023-05-14T21:20:15.699Z,12.07
2023-05-14T21:23:19.479Z,12.09
2023-05-14T21:26:24.406Z,11.98
2023-05-14T21:29:25.998Z,12.08
2023-05-14T21:32:27.760Z,11.99
2023-05-14T21:35:29.371Z,11.98
2023-05-14T21:38:32.475Z,12.01
2023-05-14T21:41:34.066Z,12.00
2023-05-14T21:44:35.737Z,12.10
2023-05-14T21:47:37.923Z,11.98
2023-05-14T21:50:39.567Z,12.03
2023-05-14T21:53:41.278Z,12.05
2023-05-14T21:56:42.841Z,12.14
2023-05-14T21:59:44.407Z,12.12
2023-05-14T22:02:46.146Z,12.14
2023-05-14T22:05:49.223Z,12.06
2023-05-14T22:08:50.801Z,12.12
2023-05-14T22:11:52.435Z,12.17
2023-05-14T22:14:53.970Z,12.13
2023-05-14T22:17:55.831Z,12.09
2023-05-14T22:20:57.421Z,12.07
2023-05-14T22:23:58.990Z,12.08
2023-05-14T22:27:00.587Z,12.03
2023-05-14T22:30:02.256Z,12.04
2023-05-14T22:33:03.900Z,12.04
2023-05-14T22:36:07.015Z,12.04
2023-05-14T22:39:09.314Z,12.09
2023-05-14T22:42:11.801Z,12.08
2023-05-14T22:45:13.424Z,12.06
2023-05-14T22:48:15.239Z,12.06
2023-05-14T22:51:16.936Z,12.10
2023-05-14T22:54:18.586Z,12.09
2023-05-14T22:57:20.401Z,12.09
2023-05-14T23:00:22.010Z,12.07
2023-05-14T23:03:23.650Z,12.09
2023-05-14T23:06:25.380Z,12.11
2023-05-14T23:09:26.931Z,12.13
2023-05-14T23:12:28.490Z,12.12
2023-05-14T23:15:30.257Z,12.11
2023-05-14T23:18:32.222Z,12.03
2023-05-14T23:21:33.865Z,12.05
2023-05-14T23:24:35.554Z,12.02
2023-05-14T23:27:37.200Z,12.07
2023-05-14T23:30:38.782Z,12.05
2023-05-14T23:33:40.350Z,12.04
2023-05-14T23:36:42.666Z,12.01
2023-05-14T23:39:44.303Z,12.09
2023-05-14T23:42:46.442Z,12.05
2023-05-14T23:45:48.082Z,12.04
2023-05-14T23:48:51.929Z,12.09
2023-05-14T23:51:53.526Z,12.05
2023-05-14T23:54:55.066Z,12.06
2023-05-14T23:57:56.804Z,12.03
